Time;durP1;ratioP1;P1;durP2;ratioP2;P2;SDS_P1;SDS_P2;PMS_P1;PMS_P2;Temp;Humidity;BMP_temperature;BMP_pressure;BME280_temperature;BME280_humidity;BME280_pressure;Samples;Min_cycle;Max_cycle;Signal;HPM_P1;HPM_P2
2021/10/10 00:02:16;;;;;;;5.93;5.00;;;12.10;99.90;;;;;;5032627;28;20243;-80
2021/10/10 00:04:41;;;;;;;9.27;6.00;;;12.00;99.90;;;;;;5033042;28;20536;-80
2021/10/10 00:07:07;;;;;;;6.47;5.17;;;12.10;99.90;;;;;;5033941;28;20521;-80
2021/10/10 00:09:33;;;;;;;8.20;5.60;;;12.10;99.90;;;;;;5032707;28;20169;-80
2021/10/10 00:11:58;;;;;;;7.67;6.23;;;12.10;99.90;;;;;;5033590;28;20238;-80
2021/10/10 00:14:25;;;;;;;8.70;6.20;;;12.00;99.90;;;;;;5034549;28;20205;-80
2021/10/10 00:16:51;;;;;;;6.20;5.43;;;12.00;99.90;;;;;;5034045;28;20158;-80
2021/10/10 00:19:16;;;;;;;6.40;5.00;;;12.00;99.90;;;;;;5037291;28;20636;-80
2021/10/10 00:21:42;;;;;;;6.77;5.83;;;12.00;99.90;;;;;;5033201;28;20697;-80
2021/10/10 00:24:08;;;;;;;6.70;5.53;;;11.90;99.90;;;;;;5037510;28;20677;-80
2021/10/10 00:26:34;;;;;;;9.20;6.30;;;11.90;99.90;;;;;;5033540;28;20174;-80
2021/10/10 00:28:59;;;;;;;6.87;5.03;;;11.90;99.90;;;;;;5032522;28;20503;-80
2021/10/10 00:31:25;;;;;;;6.73;5.50;;;11.90;99.90;;;;;;5032190;28;20252;-79
2021/10/10 00:33:51;;;;;;;9.33;6.00;;;11.90;99.90;;;;;;5033242;28;20280;-79
2021/10/10 00:36:17;;;;;;;8.82;6.20;;;11.90;99.90;;;;;;5033459;28;20643;-79
2021/10/10 00:38:43;;;;;;;7.57;5.73;;;11.80;99.90;;;;;;5033171;28;20197;-80
2021/10/10 00:41:09;;;;;;;5.87;4.80;;;11.80;99.90;;;;;;5033549;28;20204;-79
2021/10/10 00:43:34;;;;;;;6.77;5.47;;;11.80;99.90;;;;;;5032909;28;20545;-80
2021/10/10 00:46:00;;;;;;;7.97;6.00;;;11.80;99.90;;;;;;5033415;28;20197;-80
2021/10/10 00:48:26;;;;;;;12.20;5.60;;;11.70;99.90;;;;;;5033117;28;20573;-79
2021/10/10 00:50:52;;;;;;;6.90;5.60;;;11.70;99.90;;;;;;5035752;28;20205;-79
2021/10/10 00:53:19;;;;;;;6.13;5.10;;;11.70;99.90;;;;;;5032997;28;20583;-79
2021/10/10 00:55:52;;;;;;;6.93;6.15;;;11.60;99.90;;;;;;5033089;28;20525;-79
2021/10/10 00:58:26;;;;;;;8.93;5.40;;;11.60;99.90;;;;;;5031961;28;20173;-80
2021/10/10 01:00:54;;;;;;;7.88;6.30;;;11.60;99.90;;;;;;5031190;28;20189;-80
2021/10/10 01:03:20;;;;;;;9.20;6.43;;;11.60;99.90;;;;;;5033219;28;20181;-80
2021/10/10 01:05:47;;;;;;;7.53;5.97;;;11.60;99.90;;;;;;5032692;28;20177;-80
2021/10/10 01:08:16;;;;;;;6.68;5.97;;;11.50;99.90;;;;;;5031679;28;20170;-80
2021/10/10 01:10:48;;;;;;;8.20;6.13;;;11.50;99.90;;;;;;5032499;28;20562;-79
2021/10/10 01:13:18;;;;;;;7.13;5.82;;;11.50;99.90;;;;;;5031441;28;20661;-80
2021/10/10 01:15:44;;;;;;;7.07;5.32;;;11.50;99.90;;;;;;5032547;28;20192;-81
2021/10/10 01:18:10;;;;;;;6.03;5.43;;;11.50;99.90;;;;;;5032829;28;20216;-79
2021/10/10 01:20:46;;;;;;;8.00;6.70;;;11.40;99.90;;;;;;5031817;28;20205;-79
2021/10/10 01:23:13;;;;;;;5.10;4.60;;;11.40;99.90;;;;;;5031528;28;20173;-80
2021/10/10 01:25:38;;;;;;;5.35;4.82;;;11.40;99.90;;;;;;5031199;28;20176;-80
2021/10/10 01:28:05;;;;;;;7.37;6.37;;;11.40;99.90;;;;;;5034502;28;20527;-79
2021/10/10 01:30:31;;;;;;;8.27;5.80;;;11.40;99.90;;;;;;5032178;28;20243;-78
2021/10/10 01:32:57;;;;;;;6.75;5.88;;;11.30;99.90;;;;;;5032119;28;20669;-79
2021/10/10 01:35:23;;;;;;;6.15;5.60;;;11.30;99.90;;;;;;5032466;28;20634;-79
2021/10/10 01:37:49;;;;;;;7.38;6.45;;;11.30;99.90;;;;;;5014363;28;20193;-79
2021/10/10 01:40:15;;;;;;;9.07;6.17;;;11.30;99.90;;;;;;5032354;28;20668;-79
2021/10/10 01:42:40;;;;;;;7.90;5.93;;;11.30;99.90;;;;;;5030752;28;20173;-79
2021/10/10 01:45:15;;;;;;;8.00;6.80;;;11.20;99.90;;;;;;5032333;28;20192;-80
2021/10/10 01:47:41;;;;;;;11.13;6.55;;;11.20;99.90;;;;;;5032018;28;20626;-79
2021/10/10 01:50:07;;;;;;;10.57;6.37;;;11.20;99.90;;;;;;5030988;28;20892;-80
2021/10/10 01:52:33;;;;;;;8.75;7.10;;;11.10;99.90;;;;;;5031299;28;20173;-79
2021/10/10 01:54:58;;;;;;;8.37;6.93;;;11.10;99.90;;;;;;5030883;28;20625;-79
2021/10/10 01:57:24;;;;;;;8.93;6.70;;;11.10;99.90;;;;;;5030377;28;20166;-79
2021/10/10 01:59:50;;;;;;;7.80;5.90;;;11.10;99.90;;;;;;5031620;28;20196;-79
2021/10/10 02:02:15;;;;;;;8.87;6.53;;;11.10;99.90;;;;;;5031868;28;20181;-80
2021/10/10 02:04:41;;;;;;;9.23;6.37;;;11.00;99.90;;;;;;5036396;28;20162;-80
2021/10/10 02:07:08;;;;;;;7.32;6.28;;;11.00;99.90;;;;;;5031328;28;20178;-80
2021/10/10 02:09:36;;;;;;;7.53;5.97;;;11.00;99.90;;;;;;5030551;28;20169;-80
2021/10/10 02:12:02;;;;;;;6.50;5.55;;;11.00;99.90;;;;;;5012441;28;20618;-80
2021/10/10 02:14:28;;;;;;;7.57;6.25;;;11.00;99.90;;;;;;5031454;28;20208;-79
2021/10/10 02:16:54;;;;;;;7.53;6.47;;;10.90;99.90;;;;;;5032044;28;20166;-80
2021/10/10 02:19:20;;;;;;;6.67;5.90;;;10.90;99.90;;;;;;5013943;28;20633;-80
2021/10/10 02:21:46;;;;;;;8.52;6.65;;;10.90;99.90;;;;;;5030081;28;20208;-80
2021/10/10 02:24:11;;;;;;;10.60;7.00;;;10.90;99.90;;;;;;5014199;28;20169;-79
2021/10/10 02:26:37;;;;;;;8.80;6.63;;;10.90;99.90;;;;;;5030616;28;20661;-79
2021/10/10 02:29:03;;;;;;;9.80;5.80;;;10.80;99.90;;;;;;5031889;28;21275;-79
2021/10/10 02:31:30;;;;;;;9.07;6.22;;;10.80;99.90;;;;;;5031100;28;20231;-80
2021/10/10 02:33:56;;;;;;;8.95;6.53;;;10.80;99.90;;;;;;5031701;28;20204;-79
2021/10/10 02:36:21;;;;;;;9.10;7.30;;;10.80;99.90;;;;;;5031537;28;20169;-79
2021/10/10 02:38:48;;;;;;;15.10;6.80;;;10.70;99.90;;;;;;5030616;28;20189;-80
2021/10/10 02:41:14;;;;;;;8.40;7.15;;;10.70;99.90;;;;;;5031837;28;20193;-80
2021/10/10 02:43:39;;;;;;;8.83;6.30;;;10.70;99.90;;;;;;5031381;28;20217;-79
2021/10/10 02:46:05;;;;;;;6.80;6.00;;;10.70;99.90;;;;;;5031409;28;20173;-80
2021/10/10 02:48:31;;;;;;;6.40;5.80;;;10.70;99.90;;;;;;5031620;28;20260;-79
2021/10/10 02:50:56;;;;;;;6.80;6.10;;;10.60;99.90;;;;;;5031178;28;20284;-79
2021/10/10 02:53:22;;;;;;;6.97;5.77;;;10.60;99.90;;;;;;5030081;28;20213;-79
2021/10/10 02:55:48;;;;;;;7.43;6.03;;;10.60;99.90;;;;;;5031675;28;20212;-80
2021/10/10 02:58:13;;;;;;;8.83;7.23;;;10.60;99.90;;;;;;5031284;28;20161;-80
2021/10/10 03:00:40;;;;;;;8.83;7.10;;;10.60;99.90;;;;;;5031014;28;20197;-80
2021/10/10 03:03:06;;;;;;;7.00;6.25;;;10.60;99.90;;;;;;5029943;28;20182;-80
2021/10/10 03:05:31;;;;;;;8.50;7.00;;;10.60;99.90;;;;;;5031357;28;20184;-80
2021/10/10 03:07:57;;;;;;;7.10;5.70;;;10.60;99.90;;;;;;5032029;28;20634;-80
2021/10/10 03:10:23;;;;;;;7.60;6.47;;;10.60;99.90;;;;;;5035051;28;20238;-80
2021/10/10 03:12:48;;;;;;;7.77;7.00;;;10.50;99.90;;;;;;5035226;28;20201;-80
2021/10/10 03:15:14;;;;;;;7.40;6.60;;;10.50;99.90;;;;;;5034931;28;20204;-80
2021/10/10 03:17:40;;;;;;;8.80;6.23;;;10.50;99.90;;;;;;5035006;28;20644;-81
2021/10/10 03:20:06;;;;;;;8.97;6.70;;;10.40;99.90;;;;;;5037073;28;20624;-80
2021/10/10 03:22:32;;;;;;;8.32;7.35;;;10.40;99.90;;;;;;5033479;28;20181;-81
2021/10/10 03:24:58;;;;;;;6.40;5.77;;;10.40;99.90;;;;;;5033445;28;20170;-80
2021/10/10 03:27:25;;;;;;;8.90;8.00;;;10.40;99.90;;;;;;5035021;28;20197;-80
2021/10/10 03:29:53;;;;;;;10.10;8.05;;;10.40;99.90;;;;;;5034554;28;20193;-81
2021/10/10 03:32:18;;;;;;;10.80;7.45;;;10.40;99.90;;;;;;5033266;28;20177;-80
2021/10/10 03:34:44;;;;;;;8.10;7.20;;;10.40;99.90;;;;;;5033381;28;20206;-80
2021/10/10 03:37:10;;;;;;;9.40;7.40;;;10.30;99.90;;;;;;5034787;28;20823;-81
2021/10/10 03:39:35;;;;;;;8.37;6.90;;;10.30;99.90;;;;;;5033471;28;20215;-81
2021/10/10 03:42:01;;;;;;;7.90;7.10;;;10.30;99.90;;;;;;5034053;28;20185;-80
2021/10/10 03:44:27;;;;;;;7.57;6.77;;;10.20;99.90;;;;;;5034662;28;20280;-81
2021/10/10 03:46:52;;;;;;;8.17;6.03;;;10.20;99.90;;;;;;5034449;28;20177;-81
2021/10/10 03:49:18;;;;;;;7.73;6.50;;;10.20;99.90;;;;;;5033361;28;20931;-81
2021/10/10 03:51:44;;;;;;;13.37;7.80;;;10.20;99.90;;;;;;5033915;28;20700;-80
2021/10/10 03:56:38;;;;;;;13.20;8.30;;;10.10;99.90;;;;;;5037421;28;20218;-80
2021/10/10 03:59:04;;;;;;;8.83;6.83;;;10.10;99.90;;;;;;5033208;28;20249;-80
2021/10/10 04:01:29;;;;;;;12.23;8.47;;;10.00;99.90;;;;;;5033416;28;20181;-80
2021/10/10 04:03:55;;;;;;;9.07;8.20;;;10.00;99.90;;;;;;5034014;28;20756;-80
2021/10/10 04:06:21;;;;;;;9.30;7.57;;;9.90;99.90;;;;;;5034231;28;20181;-80
2021/10/10 04:08:47;;;;;;;10.50;8.53;;;9.90;99.90;;;;;;5033858;28;20312;-80
2021/10/10 04:11:12;;;;;;;9.55;7.82;;;9.90;99.90;;;;;;5033341;28;20196;-81
2021/10/10 04:13:38;;;;;;;15.33;7.10;;;9.90;99.90;;;;;;5033026;28;20201;-80
2021/10/10 04:16:04;;;;;;;7.33;6.53;;;9.90;99.90;;;;;;5032711;28;20174;-80
2021/10/10 04:18:30;;;;;;;11.27;8.13;;;9.80;99.90;;;;;;5031987;28;20937;-80
2021/10/10 04:20:58;;;;;;;7.60;6.83;;;9.80;99.90;;;;;;5033896;28;20197;-77
2021/10/10 04:23:24;;;;;;;9.07;6.53;;;9.80;99.90;;;;;;5033261;28;20537;-77
2021/10/10 04:25:50;;;;;;;12.48;7.90;;;9.80;99.90;;;;;;5033579;28;20253;-77
2021/10/10 04:28:15;;;;;;;9.20;7.57;;;9.80;99.90;;;;;;5033717;28;20261;-78
2021/10/10 04:30:41;;;;;;;10.03;7.60;;;9.80;99.90;;;;;;5033113;28;20251;-78
2021/10/10 04:33:08;;;;;;;13.17;8.53;;;9.70;99.90;;;;;;5036926;28;20630;-77
2021/10/10 04:35:34;;;;;;;12.20;8.68;;;9.70;99.90;;;;;;5033603;28;20169;-78
2021/10/10 04:38:00;;;;;;;13.65;9.13;;;9.70;99.90;;;;;;5033558;28;20166;-78
2021/10/10 04:40:26;;;;;;;11.67;8.37;;;9.70;99.90;;;;;;5032818;28;20564;-78
2021/10/10 04:42:52;;;;;;;10.77;8.37;;;9.60;99.90;;;;;;5033338;28;20600;-77
2021/10/10 04:45:17;;;;;;;10.53;7.97;;;9.60;99.90;;;;;;5033160;28;20560;-77
2021/10/10 04:47:43;;;;;;;10.20;9.10;;;9.60;99.90;;;;;;5033372;28;20188;-77
2021/10/10 04:50:09;;;;;;;13.17;8.20;;;9.60;99.90;;;;;;5033153;28;20193;-78
2021/10/10 04:52:35;;;;;;;13.80;10.37;;;9.60;99.90;;;;;;5032241;28;20242;-77
2021/10/10 04:55:02;;;;;;;11.07;8.53;;;9.50;99.90;;;;;;5033340;28;20176;-77
2021/10/10 04:57:28;;;;;;;13.52;9.07;;;9.50;99.90;;;;;;5032693;28;20577;-77
2021/10/10 04:59:53;;;;;;;9.40;7.77;;;9.50;99.90;;;;;;5033091;28;20599;-77
2021/10/10 05:02:20;;;;;;;9.37;8.40;;;9.50;99.90;;;;;;5032557;28;20668;-78
2021/10/10 05:04:47;;;;;;;10.50;8.60;;;9.50;99.90;;;;;;5034253;28;20177;-78
2021/10/10 05:07:13;;;;;;;7.70;6.70;;;9.50;99.90;;;;;;5034095;28;20178;-77
2021/10/10 05:09:39;;;;;;;9.48;7.72;;;9.50;99.90;;;;;;5036911;28;20261;-78
2021/10/10 05:12:04;;;;;;;10.00;8.87;;;9.50;99.90;;;;;;5035057;28;20540;-77
2021/10/10 05:14:31;;;;;;;9.03;7.60;;;9.40;99.90;;;;;;5032555;28;20209;-77
2021/10/10 05:16:58;;;;;;;12.15;8.52;;;9.40;99.90;;;;;;5032706;28;20571;-78
2021/10/10 05:19:24;;;;;;;10.38;8.43;;;9.40;99.90;;;;;;5032545;28;20173;-78
2021/10/10 05:21:50;;;;;;;9.13;7.75;;;9.40;99.90;;;;;;5030969;28;20564;-77
2021/10/10 05:24:16;;;;;;;9.07;7.60;;;9.40;99.90;;;;;;5032351;28;20181;-78
2021/10/10 05:26:42;;;;;;;8.77;7.23;;;9.40;99.90;;;;;;5031372;28;20534;-78
2021/10/10 05:29:08;;;;;;;7.97;6.50;;;9.40;99.90;;;;;;5032547;28;20575;-77
2021/10/10 05:31:33;;;;;;;7.83;7.03;;;9.30;99.90;;;;;;5031590;28;20616;-77
2021/10/10 05:34:00;;;;;;;10.03;7.20;;;9.30;99.90;;;;;;5033259;28;20201;-77
2021/10/10 05:36:27;;;;;;;9.38;8.18;;;9.30;99.90;;;;;;5032992;28;20173;-77
2021/10/10 05:38:53;;;;;;;9.20;7.20;;;9.20;99.90;;;;;;5033681;28;20189;-77
2021/10/10 05:41:19;;;;;;;10.50;8.00;;;9.20;99.90;;;;;;5033773;28;20182;-77
2021/10/10 05:43:45;;;;;;;9.00;7.30;;;9.20;99.90;;;;;;5032338;28;20181;-78
2021/10/10 05:46:10;;;;;;;8.77;7.87;;;9.10;99.90;;;;;;5034192;28;20642;-78
2021/10/10 05:48:36;;;;;;;8.10;6.87;;;9.10;99.90;;;;;;5036979;28;20189;-78
2021/10/10 05:51:02;;;;;;;8.57;6.80;;;9.10;99.90;;;;;;5031347;28;20985;-78
2021/10/10 05:53:27;;;;;;;9.07;7.03;;;9.10;99.90;;;;;;5031379;28;20607;-77
2021/10/10 05:55:58;;;;;;;9.47;8.20;;;9.10;99.90;;;;;;5031650;28;20636;-77
2021/10/10 05:58:26;;;;;;;9.70;7.18;;;9.10;99.90;;;;;;5032944;28;20170;-77
2021/10/10 06:00:53;;;;;;;9.48;8.23;;;9.10;99.90;;;;;;5032066;28;20550;-78
2021/10/10 06:03:19;;;;;;;8.73;7.43;;;9.10;99.90;;;;;;5033211;28;20184;-78
2021/10/10 06:05:44;;;;;;;9.30;5.87;;;9.10;99.90;;;;;;5032427;28;20174;-77
2021/10/10 06:08:10;;;;;;;8.90;7.20;;;9.10;99.90;;;;;;5032922;28;20180;-77
2021/10/10 06:10:37;;;;;;;8.00;7.03;;;9.10;99.90;;;;;;5030525;28;20247;-78
2021/10/10 06:13:03;;;;;;;10.45;7.75;;;9.10;99.90;;;;;;5032308;28;20189;-77
2021/10/10 06:15:29;;;;;;;11.13;8.00;;;9.00;99.90;;;;;;5032947;28;20166;-78
2021/10/10 06:17:56;;;;;;;9.98;7.90;;;9.00;99.90;;;;;;5033076;28;20194;-78
2021/10/10 06:20:22;;;;;;;10.17;8.80;;;9.00;99.90;;;;;;5031022;28;20231;-77
2021/10/10 06:22:49;;;;;;;9.25;7.07;;;8.90;99.90;;;;;;5033667;28;20212;-77
2021/10/10 06:25:15;;;;;;;9.70;8.03;;;8.90;99.90;;;;;;5036528;28;20174;-77
2021/10/10 06:27:41;;;;;;;10.63;8.60;;;9.00;99.90;;;;;;5034035;28;20569;-78
2021/10/10 06:30:07;;;;;;;9.55;8.13;;;8.90;99.90;;;;;;5032827;28;20283;-77
2021/10/10 06:32:33;;;;;;;8.63;7.72;;;8.90;99.90;;;;;;5031974;28;20173;-78
2021/10/10 06:34:59;;;;;;;10.03;8.43;;;9.00;99.90;;;;;;5033159;28;20208;-78
2021/10/10 06:37:24;;;;;;;8.50;7.60;;;9.10;99.90;;;;;;5032052;28;20173;-78
2021/10/10 06:39:50;;;;;;;10.40;8.40;;;9.10;99.90;;;;;;5032059;28;20551;-78
2021/10/10 06:42:16;;;;;;;9.40;8.40;;;9.10;99.90;;;;;;5032901;28;20173;-78
2021/10/10 06:44:42;;;;;;;9.85;8.30;;;9.10;99.90;;;;;;5034321;28;20180;-78
2021/10/10 06:47:08;;;;;;;9.98;8.77;;;9.10;99.90;;;;;;5034674;28;20181;-78
2021/10/10 06:49:34;;;;;;;13.57;9.37;;;9.10;99.90;;;;;;5034559;28;20170;-77
2021/10/10 06:52:00;;;;;;;10.30;8.80;;;9.10;99.90;;;;;;5035351;28;20166;-78
2021/10/10 06:54:26;;;;;;;10.90;8.65;;;9.10;99.90;;;;;;5036676;28;20201;-78
2021/10/10 06:56:52;;;;;;;10.80;8.70;;;9.20;99.90;;;;;;5035774;28;20184;-78
2021/10/10 06:59:18;;;;;;;8.47;7.50;;;9.30;99.90;;;;;;5035754;28;20165;-78
2021/10/10 07:01:44;;;;;;;16.10;11.20;;;9.30;99.90;;;;;;5039032;28;20185;-78
2021/10/10 07:04:10;;;;;;;12.38;9.10;;;9.40;99.90;;;;;;5035896;28;20169;-78
2021/10/10 07:06:36;;;;;;;12.60;9.88;;;9.40;99.90;;;;;;5034121;28;20196;-77
2021/10/10 07:09:01;;;;;;;11.17;8.80;;;9.50;99.90;;;;;;5033748;28;20276;-77
2021/10/10 07:11:27;;;;;;;12.23;9.73;;;9.50;99.90;;;;;;5033439;28;20190;-78
2021/10/10 07:13:53;;;;;;;8.77;7.93;;;9.60;99.90;;;;;;5017020;28;20209;-77
2021/10/10 07:16:25;;;;;;;12.73;9.43;;;9.70;99.90;;;;;;5035212;28;20170;-77
2021/10/10 07:18:52;;;;;;;9.02;8.13;;;9.80;99.90;;;;;;5034984;28;20245;-78
2021/10/10 07:21:24;;;;;;;10.88;9.60;;;10.00;99.90;;;;;;5033260;28;20197;-78
2021/10/10 07:26:22;;;;;;;10.55;8.90;;;10.30;99.90;;;;;;5035164;28;20174;-77
2021/10/10 07:28:49;;;;;;;10.00;8.48;;;10.40;99.90;;;;;;5036005;28;20181;-77
2021/10/10 07:31:14;;;;;;;11.98;7.97;;;10.50;99.90;;;;;;5037324;28;20197;-77
2021/10/10 07:33:40;;;;;;;10.03;8.03;;;10.70;99.90;;;;;;5037161;28;20209;-77
2021/10/10 07:36:06;;;;;;;10.10;8.70;;;10.80;99.90;;;;;;5035042;28;20265;-77
2021/10/10 07:38:32;;;;;;;11.65;9.63;;;10.90;99.90;;;;;;5035051;28;20813;-78
2021/10/10 07:41:03;;;;;;;12.43;10.30;;;11.00;99.90;;;;;;5037917;28;20673;-78
2021/10/10 07:43:30;;;;;;;10.70;9.60;;;11.10;99.90;;;;;;5036355;28;20579;-77
2021/10/10 07:46:05;;;;;;;9.63;8.48;;;11.20;99.90;;;;;;5037798;28;20253;-77
2021/10/10 07:48:31;;;;;;;10.50;9.07;;;11.30;99.90;;;;;;5038324;28;20259;-78
2021/10/10 07:50:57;;;;;;;10.93;9.23;;;11.50;99.90;;;;;;5038987;28;20208;-77
2021/10/10 07:53:23;;;;;;;10.67;8.90;;;11.60;99.90;;;;;;5037501;28;20185;-78
2021/10/10 07:55:48;;;;;;;10.90;9.40;;;11.90;99.90;;;;;;5039536;28;20513;-77
2021/10/10 07:58:14;;;;;;;10.23;8.70;;;12.40;99.90;;;;;;5039281;28;20165;-77
2021/10/10 08:00:40;;;;;;;11.43;10.10;;;13.00;99.90;;;;;;5022976;28;20224;-77
2021/10/10 08:03:05;;;;;;;13.30;9.30;;;13.80;99.90;;;;;;5040672;28;20235;-77
2021/10/10 08:05:42;;;;;;;9.47;8.57;;;14.60;99.90;;;;;;5041869;28;20173;-77
2021/10/10 08:08:09;;;;;;;9.50;8.30;;;15.60;99.90;;;;;;5040930;28;20185;-78
2021/10/10 08:10:35;;;;;;;8.20;7.30;;;16.90;99.90;;;;;;5039507;28;21144;-77
2021/10/10 08:13:01;;;;;;;8.80;8.00;;;18.00;99.90;;;;;;5039558;28;20639;-77
2021/10/10 08:15:27;;;;;;;9.20;8.20;;;19.00;99.90;;;;;;5038007;28;20561;-77
2021/10/10 08:17:53;;;;;;;7.63;6.83;;;19.90;99.90;;;;;;5037366;28;20925;-77
2021/10/10 08:20:18;;;;;;;8.18;7.38;;;20.80;99.90;;;;;;5035547;28;21098;-80
2021/10/10 08:22:46;;;;;;;10.70;9.60;;;21.60;99.90;;;;;;5033110;28;20709;-80
2021/10/10 08:25:12;;;;;;;7.10;6.50;;;22.20;98.40;;;;;;5033991;28;20177;-80
2021/10/10 08:27:40;;;;;;;10.10;6.50;;;22.70;99.90;;;;;;5033919;28;20595;-80
2021/10/10 08:30:11;;;;;;;8.90;6.37;;;23.40;99.90;;;;;;5035167;28;20173;-80
2021/10/10 08:32:38;;;;;;;7.10;6.50;;;24.20;99.90;;;;;;5033963;28;20600;-77
2021/10/10 08:35:06;;;;;;;8.23;7.30;;;24.90;99.90;;;;;;5034887;28;20994;-78
2021/10/10 08:37:32;;;;;;;7.53;6.70;;;25.20;98.10;;;;;;5035475;28;20576;-78
2021/10/10 08:39:58;;;;;;;7.10;6.20;;;25.40;96.40;;;;;;5034986;28;21403;-78
2021/10/10 08:42:31;;;;;;;7.43;6.77;;;25.50;95.60;;;;;;5035025;28;20619;-78
2021/10/10 08:45:04;;;;;;;6.50;5.90;;;25.60;94.30;;;;;;5035337;28;20486;-77
2021/10/10 08:47:32;;;;;;;8.23;6.80;;;25.50;92.10;;;;;;5035074;28;20572;-78
2021/10/10 08:49:58;;;;;;;7.60;6.90;;;25.30;91.90;;;;;;5034199;28;20597;-75
2021/10/10 08:52:24;;;;;;;7.40;6.60;;;25.40;92.30;;;;;;5035022;28;20561;-78
2021/10/10 08:54:50;;;;;;;6.40;5.80;;;25.80;92.70;;;;;;5036618;28;20703;-77
2021/10/10 08:57:17;;;;;;;6.30;5.70;;;26.30;92.60;;;;;;5035232;28;20172;-77
2021/10/10 08:59:46;;;;;;;6.97;6.37;;;26.80;92.50;;;;;;5035115;28;20564;-75
2021/10/10 09:02:19;;;;;;;8.10;7.30;;;27.30;91.50;;;;;;5032607;28;20579;-75
2021/10/10 09:04:45;;;;;;;7.13;6.50;;;27.60;89.70;;;;;;5033086;28;20576;-75
2021/10/10 09:07:11;;;;;;;7.23;6.63;;;27.60;84.70;;;;;;5035925;28;20579;-76
2021/10/10 09:09:37;;;;;;;8.27;6.83;;;27.60;83.60;;;;;;5036489;28;20188;-76
2021/10/10 09:12:11;;;;;;;7.20;6.60;;;27.70;81.90;;;;;;5036871;28;20671;-76
2021/10/10 09:14:48;;;;;;;7.67;6.97;;;27.70;74.60;;;;;;5034335;28;20205;-75
2021/10/10 09:17:22;;;;;;;6.27;5.67;;;27.50;77.00;;;;;;5034425;28;20629;-75
2021/10/10 09:19:50;;;;;;;8.47;7.33;;;27.30;74.60;;;;;;5033898;28;20666;-75
2021/10/10 09:22:17;;;;;;;7.30;6.40;;;27.30;72.90;;;;;;5034151;28;20666;-75
2021/10/10 09:24:43;;;;;;;8.40;6.93;;;27.20;73.80;;;;;;5034364;28;20928;-77
2021/10/10 09:27:16;;;;;;;8.90;6.87;;;27.20;74.40;;;;;;5032781;28;20579;-75
2021/10/10 09:29:45;;;;;;;8.10;6.50;;;27.20;73.20;;;;;;5034043;28;20572;-75
2021/10/10 09:32:17;;;;;;;6.63;6.10;;;27.40;73.20;;;;;;5016495;28;20575;-75
2021/10/10 09:34:44;;;;;;;7.07;6.40;;;27.40;72.20;;;;;;5034076;28;20619;-75
2021/10/10 09:40:18;;;;;;;7.30;6.40;;;27.40;70.10;;;;;;5032624;28;20586;-76
2021/10/10 09:42:46;;;;;;;6.43;5.83;;;27.50;69.90;;;;;;5035848;28;20630;-76
2021/10/10 09:45:40;;;;;;;7.20;6.50;;;27.80;70.70;;;;;;5036395;28;20583;-77
2021/10/10 09:48:06;;;;;;;6.47;5.87;;;27.90;69.80;;;;;;5035948;28;21146;-77
2021/10/10 09:50:39;;;;;;;9.20;7.23;;;28.00;68.60;;;;;;5035778;28;20584;-77
2021/10/10 09:53:08;;;;;;;7.80;7.07;;;27.60;66.00;;;;;;5035213;28;21180;-76
2021/10/10 09:55:39;;;;;;;7.27;6.57;;;27.30;64.60;;;;;;5036407;28;21321;-77
2021/10/10 09:58:05;;;;;;;8.17;7.47;;;27.00;64.20;;;;;;5036089;28;20584;-76
2021/10/10 10:00:34;;;;;;;7.80;6.30;;;26.80;63.50;;;;;;5018354;28;20668;-76
2021/10/10 10:03:11;;;;;;;8.57;6.83;;;26.70;64.50;;;;;;5036943;28;20611;-76
2021/10/10 10:05:38;;;;;;;7.20;6.60;;;26.90;63.30;;;;;;5034154;28;20985;-77
2021/10/10 10:08:05;;;;;;;8.53;7.73;;;26.90;65.60;;;;;;5038367;28;20895;-76
2021/10/10 10:10:32;;;;;;;9.33;8.43;;;27.00;64.80;;;;;;5036632;28;20620;-77
2021/10/10 10:13:00;;;;;;;8.87;7.97;;;26.80;63.80;;;;;;5032921;28;20950;-76
2021/10/10 10:15:28;;;;;;;7.93;7.23;;;26.50;64.20;;;;;;5034754;28;20604;-76
2021/10/10 10:17:56;;;;;;;7.80;6.90;;;26.30;63.00;;;;;;5034348;28;20736;-77
2021/10/10 10:20:23;;;;;;;7.30;6.60;;;26.20;64.70;;;;;;5035073;28;21207;-77
2021/10/10 10:22:52;;;;;;;7.33;6.70;;;26.10;64.10;;;;;;5031294;28;20573;-80
2021/10/10 10:25:19;;;;;;;9.20;7.57;;;25.90;63.80;;;;;;5031533;28;20568;-79
2021/10/10 10:27:49;;;;;;;8.70;5.90;;;25.80;63.00;;;;;;5031889;28;20565;-79
2021/10/10 10:30:20;;;;;;;6.83;6.23;;;25.70;64.30;;;;;;5031616;28;20642;-79
2021/10/10 10:32:47;;;;;;;6.13;5.60;;;25.70;64.70;;;;;;5030339;28;20921;-79
2021/10/10 10:35:20;;;;;;;9.43;6.43;;;25.70;65.00;;;;;;5031515;28;20553;-79
2021/10/10 10:37:49;;;;;;;7.97;5.80;;;25.70;63.80;;;;;;5031475;28;20568;-78
2021/10/10 10:40:14;;;;;;;9.47;5.53;;;25.50;64.30;;;;;;5031473;28;20584;-79
2021/10/10 10:42:42;;;;;;;6.53;5.93;;;25.50;65.20;;;;;;5030835;28;20630;-79
2021/10/10 10:45:38;;;;;;;8.70;6.10;;;25.80;65.70;;;;;;5032288;28;20166;-78
2021/10/10 10:48:31;;;;;;;7.07;5.90;;;25.90;66.00;;;;;;5009099;28;20580;-79
2021/10/10 10:51:23;;;;;;;6.30;5.70;;;26.10;65.70;;;;;;5030801;28;20593;-78
2021/10/10 10:53:49;;;;;;;6.33;5.73;;;26.30;65.00;;;;;;5031306;28;20978;-79
2021/10/10 10:56:33;;;;;;;7.17;5.97;;;26.50;65.60;;;;;;5031215;28;20595;-79
2021/10/10 10:58:58;;;;;;;6.73;5.50;;;26.70;65.40;;;;;;5031467;28;20568;-79
2021/10/10 11:01:24;;;;;;;6.70;6.10;;;27.00;65.80;;;;;;5029367;28;21220;-79
2021/10/10 11:03:50;;;;;;;8.33;6.10;;;27.20;64.70;;;;;;5031111;28;20233;-79
2021/10/10 11:06:21;;;;;;;5.97;5.40;;;27.30;63.90;;;;;;5031148;28;20196;-79
2021/10/10 11:08:47;;;;;;;5.80;5.30;;;27.40;62.80;;;;;;5031068;28;20169;-79
2021/10/10 11:11:24;;;;;;;7.27;4.80;;;27.50;62.50;;;;;;5030781;28;21178;-79
2021/10/10 11:13:54;;;;;;;5.70;5.20;;;27.50;62.20;;;;;;5031064;28;20268;-79
2021/10/10 11:16:28;;;;;;;7.67;6.00;;;27.60;62.30;;;;;;5030154;28;20568;-79
2021/10/10 11:19:25;;;;;;;6.73;6.10;;;27.80;63.30;;;;;;5031231;28;20608;-79
2021/10/10 11:21:53;;;;;;;8.57;6.20;;;27.80;61.20;;;;;;5026528;28;20636;-79
2021/10/10 11:24:19;;;;;;;6.17;5.67;;;27.80;60.70;;;;;;5030023;28;20568;-79
2021/10/10 11:26:46;;;;;;;6.53;5.87;;;27.60;60.00;;;;;;5029835;28;20627;-79
2021/10/10 11:29:15;;;;;;;6.30;5.70;;;27.50;59.60;;;;;;5032170;28;21267;-79
2021/10/10 11:31:42;;;;;;;5.83;5.33;;;27.30;59.30;;;;;;5033684;28;20616;-79
2021/10/10 11:34:11;;;;;;;8.47;6.73;;;27.20;59.30;;;;;;5034296;28;20723;-79
2021/10/10 11:36:46;;;;;;;8.03;6.70;;;26.90;58.60;;;;;;5034437;28;20899;-79
2021/10/10 11:39:16;;;;;;;6.17;5.57;;;26.60;58.10;;;;;;5034167;28;20568;-79
2021/10/10 11:42:00;;;;;;;6.50;5.90;;;26.30;58.50;;;;;;5032811;28;20643;-79
2021/10/10 11:44:46;;;;;;;7.33;6.37;;;26.10;58.00;;;;;;5033043;28;20667;-79
2021/10/10 11:47:30;;;;;;;5.17;4.67;;;25.70;58.10;;;;;;5032999;28;21186;-80
2021/10/10 11:49:58;;;;;;;6.50;5.63;;;25.50;58.50;;;;;;5033992;28;20974;-79
2021/10/10 11:52:35;;;;;;;7.10;6.30;;;25.50;59.20;;;;;;5032842;28;20568;-79
2021/10/10 11:55:23;;;;;;;6.10;5.50;;;25.50;59.60;;;;;;5033871;28;20638;-79
2021/10/10 11:57:57;;;;;;;6.30;5.53;;;25.60;59.10;;;;;;5035369;28;20568;-79
2021/10/10 12:00:25;;;;;;;5.73;5.13;;;25.50;59.10;;;;;;5034307;28;20589;-79
2021/10/10 12:02:51;;;;;;;5.30;4.80;;;25.20;58.50;;;;;;5032633;28;20621;-79
2021/10/10 12:05:24;;;;;;;5.43;4.70;;;24.90;58.70;;;;;;5033891;28;20592;-79
2021/10/10 12:07:53;;;;;;;6.80;6.00;;;24.80;58.80;;;;;;5034157;28;20564;-79
2021/10/10 12:10:23;;;;;;;6.67;5.90;;;24.80;59.40;;;;;;5032639;28;20591;-79
2021/10/10 12:12:50;;;;;;;7.13;6.27;;;24.80;59.60;;;;;;5033629;28;20968;-79
2021/10/10 12:15:17;;;;;;;5.67;5.07;;;24.80;59.50;;;;;;5033673;28;20968;-79
2021/10/10 12:17:48;;;;;;;7.53;5.90;;;24.70;59.00;;;;;;5032698;28;20606;-79
2021/10/10 12:20:17;;;;;;;6.57;5.37;;;24.50;58.70;;;;;;5032282;28;20970;-79
2021/10/10 12:22:49;;;;;;;6.07;4.90;;;24.20;58.30;;;;;;5032122;28;20675;-79
2021/10/10 12:25:25;;;;;;;6.10;5.50;;;24.00;58.30;;;;;;5032300;28;20615;-79
2021/10/10 12:28:01;;;;;;;6.20;5.30;;;23.70;58.40;;;;;;5033702;28;20614;-79
2021/10/10 12:30:57;;;;;;;6.17;4.77;;;23.40;58.50;;;;;;5032050;28;20604;-79
2021/10/10 12:33:33;;;;;;;5.70;4.80;;;23.10;58.50;;;;;;5032560;28;20619;-79
2021/10/10 12:36:05;;;;;;;7.03;5.90;;;22.90;58.30;;;;;;5034294;28;20560;-79
2021/10/10 12:38:39;;;;;;;7.63;4.67;;;22.60;58.60;;;;;;5032444;28;20563;-79
2021/10/10 12:41:21;;;;;;;6.27;5.67;;;22.40;58.60;;;;;;5032629;28;20642;-78
2021/10/10 12:44:12;;;;;;;5.40;4.70;;;22.10;59.10;;;;;;5033355;28;20572;-79
2021/10/10 12:47:06;;;;;;;5.67;5.07;;;21.90;59.00;;;;;;5033171;28;20618;-79
2021/10/10 12:49:33;;;;;;;6.57;5.90;;;21.60;59.10;;;;;;5030770;28;20592;-79
2021/10/10 12:52:05;;;;;;;6.13;5.50;;;21.40;59.00;;;;;;5032084;28;20599;-79
2021/10/10 12:54:31;;;;;;;6.17;5.10;;;21.20;58.90;;;;;;5033040;28;20631;-79
2021/10/10 12:57:02;;;;;;;8.10;6.23;;;21.00;58.90;;;;;;5032253;28;20589;-79
2021/10/10 12:59:28;;;;;;;6.70;5.40;;;20.80;58.70;;;;;;5032590;28;20232;-79
2021/10/10 13:01:54;;;;;;;6.33;5.50;;;20.60;58.80;;;;;;5031765;28;20691;-79